Time;durP1;ratioP1;P1;durP2;ratioP2;P2;SDS_P1;SDS_P2;PMS_P1;PMS_P2;Temp;Humidity;BMP_temperature;BMP_pressure;BME280_temperature;BME280_humidity;BME280_pressure;Samples;Min_cycle;Max_cycle;Signal;HPM_P1;HPM_P2
2022/03/28 00:01:21;;;;;;;;;;;;;;;0.00;33.55;98495.73;110897;1241;67798;-62
2022/03/28 00:03:51;;;;;;;;;;;;;;;-0.08;32.09;98487.27;111120;1241;68685;-64
2022/03/28 00:06:20;;;;;;;;;;;;;;;-0.15;34.84;98484.96;110877;1240;60463;-64
2022/03/28 00:08:50;;;;;;;;;;;;;;;-0.22;37.58;98478.71;110743;1241;60444;-62
2022/03/28 00:11:20;;;;;;;;;;;;;;;-0.31;37.35;98476.09;110941;1240;71834;-62
2022/03/28 00:13:50;;;;;;;;;;;;;;;-0.38;38.43;98475.14;110620;1241;67564;-67
2022/03/28 00:16:19;;;;;;;;;;;;;;;-0.41;36.33;98474.50;110685;1241;69254;-63
2022/03/28 00:18:49;;;;;;;;;;;;;;;-0.43;33.47;98473.15;110833;1241;60495;-64
2022/03/28 00:21:19;;;;;;;;;;;;;;;-0.42;33.22;98476.58;110787;1241;60558;-63
2022/03/28 00:23:50;;;;;;;;;;;;;;;-0.42;36.56;98479.82;110996;1240;72441;-65
2022/03/28 00:26:20;;;;;;;;;;;;;;;-0.46;36.14;98479.19;110812;1241;68545;-62
2022/03/28 00:28:49;;;;;;;;;;;;;;;-0.52;36.94;98475.83;110813;1241;69490;-66
2022/03/28 00:31:21;;;;;;;;;;;;;;;-0.56;39.21;98472.10;110778;1241;60545;-64
2022/03/28 00:33:51;;;;;;;;;;;;;;;-0.60;37.52;98477.98;110823;1241;60590;-66
2022/03/28 00:36:20;;;;;;;;;;;;;;;-0.65;37.85;98480.59;110775;1240;71606;-66
2022/03/28 00:38:51;;;;;;;;;;;;;;;-0.71;35.99;98481.87;110821;1241;67725;-68
2022/03/28 00:41:27;;;;;;;;;;;;;;;-0.78;37.44;98479.37;110860;1240;69127;-66
2022/03/28 00:43:58;;;;;;;;;;;;;;;-0.82;39.07;98478.39;111058;1240;60710;-64
2022/03/28 00:46:28;;;;;;;;;;;;;;;-0.86;38.04;98485.78;111051;1239;60486;-62
2022/03/28 00:48:58;;;;;;;;;;;;;;;-0.90;40.07;98482.05;110680;1241;72369;-61
2022/03/28 00:51:29;;;;;;;;;;;;;;;-0.93;40.44;98480.04;111067;1241;67749;-65
2022/03/28 00:53:59;;;;;;;;;;;;;;;-0.98;40.61;98486.23;111069;1238;69472;-63
2022/03/28 00:56:29;;;;;;;;;;;;;;;-1.03;40.72;98482.52;110728;1241;60528;-65
2022/03/28 00:58:59;;;;;;;;;;;;;;;-1.08;39.12;98478.30;110865;1241;60442;-66
2022/03/28 01:01:29;;;;;;;;;;;;;;;-1.13;39.10;98479.88;110825;1241;72701;-66
2022/03/28 01:03:59;;;;;;;;;;;;;;;-1.17;38.20;98477.86;110951;1241;67966;-65
2022/03/28 01:06:30;;;;;;;;;;;;;;;-1.20;38.47;98474.81;110923;1240;67588;-66
2022/03/28 01:09:01;;;;;;;;;;;;;;;-1.22;38.62;98472.44;110794;1241;60483;-65
2022/03/28 01:11:33;;;;;;;;;;;;;;;-1.25;37.57;98474.00;111017;1241;60423;-63
2022/03/28 01:14:04;;;;;;;;;;;;;;;-1.29;38.38;98478.31;110958;1240;72330;-63
2022/03/28 01:18:05;;;;;;;;;;;;;;;-1.34;37.35;98479.20;110937;1241;67950;-63
2022/03/28 01:19:25;;;;;;;;;;;;;;;-1.41;36.21;98484.73;110881;1241;69234;-65
2022/03/28 01:21:56;;;;;;;;;;;;;;;-1.47;41.14;98480.51;110867;1241;60473;-63
2022/03/28 01:24:27;;;;;;;;;;;;;;;-1.52;41.78;98481.76;110751;1241;60506;-62
2022/03/28 01:26:57;;;;;;;;;;;;;;;-1.56;41.12;98478.19;110711;1240;71735;-66
2022/03/28 01:29:27;;;;;;;;;;;;;;;-1.58;39.67;98478.20;110770;1241;67822;-62
2022/03/28 01:31:59;;;;;;;;;;;;;;;-1.61;39.39;98477.54;110759;1241;68516;-63
2022/03/28 01:34:28;;;;;;;;;;;;;;;-1.65;37.76;98477.56;111159;1240;60488;-63
2022/03/28 01:37:00;;;;;;;;;;;;;;;-1.67;36.54;98476.20;111172;1241;60496;-63
2022/03/28 01:39:31;;;;;;;;;;;;;;;-1.70;37.17;98478.11;111096;1241;72308;-67
2022/03/28 01:42:03;;;;;;;;;;;;;;;-1.73;37.66;98481.02;111157;1241;67672;-66
2022/03/28 01:44:34;;;;;;;;;;;;;;;-1.75;39.21;98478.83;111022;1239;68551;-66
2022/03/28 01:47:04;;;;;;;;;;;;;;;-1.79;41.25;98480.39;110709;1241;60484;-63
2022/03/28 01:49:35;;;;;;;;;;;;;;;-1.83;41.53;98476.48;110919;1241;60451;-63
2022/03/28 01:52:06;;;;;;;;;;;;;;;-1.86;41.56;98474.11;110845;1240;72234;-65
2022/03/28 01:54:36;;;;;;;;;;;;;;;-1.90;41.88;98473.11;110838;1240;68546;-63
2022/03/28 01:57:09;;;;;;;;;;;;;;;-1.93;42.39;98473.13;110767;1240;69289;-63
2022/03/28 01:59:39;;;;;;;;;;;;;;;-1.96;42.70;98473.66;110696;1241;60502;-62
2022/03/28 02:02:08;;;;;;;;;;;;;;;-2.00;40.95;98474.38;110984;1240;60475;-62
2022/03/28 02:04:38;;;;;;;;;;;;;;;-2.05;40.11;98475.08;110821;1240;72135;-62
2022/03/28 02:07:08;;;;;;;;;;;;;;;-2.11;40.44;98472.04;111025;1240;68392;-62
2022/03/28 02:09:38;;;;;;;;;;;;;;;-2.13;41.53;98467.77;111107;1238;69636;-64
2022/03/28 02:12:08;;;;;;;;;;;;;;;-2.13;40.22;98469.14;111070;1238;60862;-67
2022/03/28 02:14:38;;;;;;;;;;;;;;;-2.17;39.38;98463.71;110830;1241;60984;-63
2022/03/28 02:17:07;;;;;;;;;;;;;;;-2.26;43.15;98467.16;111125;1240;71470;-63
2022/03/28 02:19:38;;;;;;;;;;;;;;;-2.33;43.78;98468.73;110848;1241;68603;-63
2022/03/28 02:22:08;;;;;;;;;;;;;;;-2.41;44.91;98469.79;110888;1241;67473;-66
2022/03/28 02:24:39;;;;;;;;;;;;;;;-2.49;44.14;98463.68;111034;1241;60488;-64
2022/03/28 02:27:08;;;;;;;;;;;;;;;-2.53;46.31;98463.37;110802;1241;60883;-63
2022/03/28 02:29:38;;;;;;;;;;;;;;;-2.56;45.80;98465.58;110847;1241;72378;-63
2022/03/28 02:32:08;;;;;;;;;;;;;;;-2.59;46.76;98467.64;110827;1241;68660;-67
2022/03/28 02:34:38;;;;;;;;;;;;;;;-2.61;44.65;98467.99;111069;1241;68809;-65
2022/03/28 02:37:08;;;;;;;;;;;;;;;-2.64;42.61;98473.96;111109;1239;60530;-68
2022/03/28 02:39:38;;;;;;;;;;;;;;;-2.66;40.46;98469.71;111133;1240;60487;-62
2022/03/28 02:42:07;;;;;;;;;;;;;;;-2.71;44.34;98465.80;110980;1239;72114;-63
2022/03/28 02:44:37;;;;;;;;;;;;;;;-2.73;41.79;98465.13;111056;1241;67714;-62
2022/03/28 02:47:06;;;;;;;;;;;;;;;-2.73;40.68;98468.88;110830;1241;69555;-64
2022/03/28 02:49:36;;;;;;;;;;;;;;;-2.69;41.73;98475.52;110972;1241;60489;-66
2022/03/28 02:52:06;;;;;;;;;;;;;;;-2.68;43.36;98479.11;110840;1240;60543;-66
2022/03/28 02:54:36;;;;;;;;;;;;;;;-2.71;44.00;98478.27;110960;1241;70457;-66
2022/03/28 02:57:06;;;;;;;;;;;;;;;-2.75;42.91;98478.44;110318;1241;715766;-65
2022/03/28 02:59:35;;;;;;;;;;;;;;;-2.74;44.80;98478.10;110789;1241;68605;-68
2022/03/28 03:02:06;;;;;;;;;;;;;;;-2.76;44.73;98480.66;111045;1241;60540;-66
2022/03/28 03:04:36;;;;;;;;;;;;;;;-2.78;43.64;98482.88;110910;1240;60491;-63
2022/03/28 03:07:06;;;;;;;;;;;;;;;-2.79;44.42;98482.89;110727;1239;72135;-65
2022/03/28 03:09:36;;;;;;;;;;;;;;;-2.79;43.49;98475.71;110989;1240;68532;-63
2022/03/28 03:12:05;;;;;;;;;;;;;;;-2.80;43.03;98473.69;111015;1241;69417;-61
2022/03/28 03:14:36;;;;;;;;;;;;;;;-2.84;41.05;98476.25;110848;1240;60512;-62
2022/03/28 03:17:06;;;;;;;;;;;;;;;-2.85;44.81;98481.71;111115;1240;60982;-66
2022/03/28 03:19:35;;;;;;;;;;;;;;;-2.87;44.04;98480.17;110897;1241;72116;-62
2022/03/28 03:22:05;;;;;;;;;;;;;;;-2.91;43.43;98474.21;110940;1240;66965;-67
2022/03/28 03:24:35;;;;;;;;;;;;;;;-2.93;44.29;98476.77;110824;1241;67554;-65
2022/03/28 03:27:06;;;;;;;;;;;;;;;-2.94;44.36;98472.52;110855;1240;60520;-65
2022/03/28 03:29:36;;;;;;;;;;;;;;;-2.96;44.01;98469.10;110924;1241;60392;-63
2022/03/28 03:32:06;;;;;;;;;;;;;;;-2.98;43.38;98464.68;110725;1241;72333;-62
2022/03/28 03:34:36;;;;;;;;;;;;;;;-3.01;42.52;98459.57;110794;1241;68382;-63
2022/03/28 03:37:06;;;;;;;;;;;;;;;-3.04;42.29;98461.11;110976;1241;68471;-64
2022/03/28 03:39:36;;;;;;;;;;;;;;;-3.06;44.13;98463.84;110686;1241;60496;-65
2022/03/28 03:42:06;;;;;;;;;;;;;;;-3.08;41.19;98462.99;111013;1238;60518;-63
2022/03/28 03:44:35;;;;;;;;;;;;;;;-3.09;39.82;98459.77;111012;1241;71314;-63
2022/03/28 03:47:05;;;;;;;;;;;;;;;-3.06;40.55;98462.80;110907;1241;67671;-64
2022/03/28 03:49:35;;;;;;;;;;;;;;;-3.03;40.76;98465.55;110852;1241;69228;-65
2022/03/28 03:52:05;;;;;;;;;;;;;;;-3.02;42.86;98460.59;110886;1241;60545;-63
2022/03/28 03:54:34;;;;;;;;;;;;;;;-3.03;42.57;98459.23;110709;1241;60469;-64
2022/03/28 03:57:04;;;;;;;;;;;;;;;-3.05;41.16;98458.90;110834;1241;71380;-63
2022/03/28 03:59:33;;;;;;;;;;;;;;;-3.04;41.70;98457.38;110797;1241;67964;-63
2022/03/28 04:02:03;;;;;;;;;;;;;;;-3.02;42.85;98456.84;110824;1241;69413;-62
2022/03/28 04:04:32;;;;;;;;;;;;;;;-3.02;43.03;98462.64;110780;1241;60490;-66
2022/03/28 04:07:02;;;;;;;;;;;;;;;-3.02;42.90;98454.96;110729;1241;60478;-66
2022/03/28 04:09:31;;;;;;;;;;;;;;;-3.02;42.72;98458.03;110924;1241;71574;-65
2022/03/28 04:12:02;;;;;;;;;;;;;;;-3.03;42.86;98461.79;110745;1241;68855;-66
2022/03/28 04:14:33;;;;;;;;;;;;;;;-3.07;44.00;98462.31;110755;1241;68467;-67
2022/03/28 04:17:02;;;;;;;;;;;;;;;-3.12;44.40;98462.15;110737;1241;60542;-67
2022/03/28 04:19:32;;;;;;;;;;;;;;;-3.18;44.71;98465.23;110899;1241;60557;-63
2022/03/28 04:22:01;;;;;;;;;;;;;;;-3.27;46.14;98463.02;110827;1241;72291;-65
2022/03/28 04:24:30;;;;;;;;;;;;;;;-3.34;46.46;98464.21;110376;1243;68853;-65
2022/03/28 04:26:59;;;;;;;;;;;;;;;-3.38;45.74;98469.67;110730;1241;69953;-64
2022/03/28 04:29:29;;;;;;;;;;;;;;;-3.39;45.60;98464.21;110731;1241;60502;-63
2022/03/28 04:31:59;;;;;;;;;;;;;;;-3.39;46.75;98463.88;110848;1241;60473;-63
2022/03/28 04:34:28;;;;;;;;;;;;;;;-3.39;46.02;98454.15;110689;1241;72636;-63
2022/03/28 04:36:57;;;;;;;;;;;;;;;-3.38;46.34;98455.52;110939;1240;67839;-69
2022/03/28 04:39:27;;;;;;;;;;;;;;;-3.34;46.08;98453.14;111229;1240;67820;-66
2022/03/28 04:41:56;;;;;;;;;;;;;;;-3.26;44.69;98452.10;110771;1241;60447;-63
2022/03/28 04:44:26;;;;;;;;;;;;;;;-3.14;44.92;98454.65;110950;1241;60486;-65
2022/03/28 04:46:55;;;;;;;;;;;;;;;-2.99;44.58;98447.61;110848;1241;72359;-64
2022/03/28 04:49:24;;;;;;;;;;;;;;;-2.81;43.91;98442.28;110942;1241;68418;-64
2022/03/28 04:51:53;;;;;;;;;;;;;;;-2.59;43.47;98447.50;110957;1241;69432;-66
2022/03/28 04:54:22;;;;;;;;;;;;;;;-2.36;44.18;98449.11;110843;1241;60932;-68
2022/03/28 04:56:51;;;;;;;;;;;;;;;-2.22;44.39;98451.09;110876;1241;60439;-67
2022/03/28 04:59:20;;;;;;;;;;;;;;;-2.14;45.25;98454.98;110897;1241;72127;-68
2022/03/28 05:01:49;;;;;;;;;;;;;;;-2.10;46.01;98461.44;110813;1241;68627;-67
2022/03/28 05:04:18;;;;;;;;;;;;;;;-2.21;45.92;98466.61;110780;1241;69834;-64
2022/03/28 05:06:47;;;;;;;;;;;;;;;-2.44;46.82;98472.86;110718;1243;60593;-65
2022/03/28 05:09:17;;;;;;;;;;;;;;;-2.52;45.96;98473.91;110957;1241;60471;-62
2022/03/28 05:11:47;;;;;;;;;;;;;;;-2.36;45.88;98480.53;110819;1241;72942;-62
2022/03/28 05:14:18;;;;;;;;;;;;;;;-2.10;45.24;98489.13;111037;1241;68050;-64
2022/03/28 05:16:47;;;;;;;;;;;;;;;-1.92;44.12;98489.36;110683;1241;69433;-60
2022/03/28 05:19:16;;;;;;;;;;;;;;;-1.73;44.22;98487.70;110739;1241;60610;-65
2022/03/28 05:21:47;;;;;;;;;;;;;;;-1.52;44.72;98491.84;110464;1244;60497;-65
2022/03/28 05:24:16;;;;;;;;;;;;;;;-1.37;44.56;98489.66;110809;1241;71607;-64
2022/03/28 05:26:45;;;;;;;;;;;;;;;-1.20;43.84;98495.17;110850;1241;67861;-65
2022/03/28 05:29:15;;;;;;;;;;;;;;;-0.98;43.71;98497.20;110743;1241;69542;-64
2022/03/28 05:31:44;;;;;;;;;;;;;;;-0.74;43.61;98493.00;110540;1244;60844;-63
2022/03/28 05:34:14;;;;;;;;;;;;;;;-0.48;43.63;98493.77;110780;1241;60483;-63
2022/03/28 05:36:45;;;;;;;;;;;;;;;-0.23;43.12;98499.80;110774;1241;71591;-65
2022/03/28 05:39:14;;;;;;;;;;;;;;;0.24;43.09;98497.48;110767;1239;69220;-63
2022/03/28 05:41:43;;;;;;;;;;;;;;;0.69;42.47;98494.57;110807;1241;68845;-62
2022/03/28 05:44:12;;;;;;;;;;;;;;;1.07;41.33;98494.09;111080;1241;60476;-63
2022/03/28 05:46:41;;;;;;;;;;;;;;;1.36;40.49;98490.14;111064;1241;60684;-65
2022/03/28 05:49:10;;;;;;;;;;;;;;;1.61;39.84;98492.91;110685;1241;73288;-65
2022/03/28 05:51:39;;;;;;;;;;;;;;;1.93;39.47;98495.38;110967;1241;68160;-66
2022/03/28 05:54:12;;;;;;;;;;;;;;;2.25;38.51;98497.94;111040;1241;69816;-66
2022/03/28 05:56:41;;;;;;;;;;;;;;;2.49;37.92;98496.38;111087;1241;60507;-63
2022/03/28 05:59:11;;;;;;;;;;;;;;;2.72;37.30;98494.98;110806;1241;60402;-66
2022/03/28 06:01:40;;;;;;;;;;;;;;;2.92;36.96;98490.36;111049;1240;72436;-67
2022/03/28 06:04:09;;;;;;;;;;;;;;;3.19;36.76;98487.25;110989;1241;67831;-65
2022/03/28 06:06:39;;;;;;;;;;;;;;;3.54;36.09;98482.86;110950;1241;69423;-67
2022/03/28 06:09:10;;;;;;;;;;;;;;;3.98;36.35;98479.72;110698;1241;60903;-64
2022/03/28 06:11:39;;;;;;;;;;;;;;;4.50;36.18;98477.63;111122;1241;60450;-66
2022/03/28 06:14:09;;;;;;;;;;;;;;;4.96;35.05;98470.97;111107;1240;71589;-69
2022/03/28 06:16:38;;;;;;;;;;;;;;;5.36;32.99;98470.27;111161;1240;68625;-62
2022/03/28 06:19:07;;;;;;;;;;;;;;;5.45;32.47;98467.70;110794;1241;69561;-62
2022/03/28 06:21:36;;;;;;;;;;;;;;;5.80;32.18;98464.05;110828;1241;60522;-61
2022/03/28 06:24:07;;;;;;;;;;;;;;;6.19;31.83;98467.27;110996;1241;60513;-67
2022/03/28 06:26:36;;;;;;;;;;;;;;;6.49;30.39;98461.08;110943;1240;72028;-66
2022/03/28 06:29:06;;;;;;;;;;;;;;;6.40;29.65;98461.46;110902;1241;68067;-66
2022/03/28 06:31:35;;;;;;;;;;;;;;;6.19;29.30;98461.23;110724;1241;68654;-66
2022/03/28 06:34:04;;;;;;;;;;;;;;;6.22;29.63;98458.67;110771;1241;60453;-67
2022/03/28 06:36:33;;;;;;;;;;;;;;;6.12;29.14;98457.86;111100;1239;60418;-67
2022/03/28 06:39:03;;;;;;;;;;;;;;;6.24;28.86;98455.65;110841;1240;72304;-66
2022/03/28 06:41:32;;;;;;;;;;;;;;;6.63;28.15;98455.00;110759;1241;67796;-63
2022/03/28 06:44:01;;;;;;;;;;;;;;;6.82;27.58;98458.54;111129;1240;69490;-63
2022/03/28 06:46:30;;;;;;;;;;;;;;;7.03;27.54;98457.34;111079;1239;60486;-61
2022/03/28 06:49:00;;;;;;;;;;;;;;;7.39;27.15;98454.42;111123;1239;60540;-63
2022/03/28 06:51:29;;;;;;;;;;;;;;;7.83;27.11;98458.88;111125;1241;71259;-63
2022/03/28 06:53:59;;;;;;;;;;;;;;;8.36;25.52;98455.59;110894;1241;68365;-66
2022/03/28 06:56:28;;;;;;;;;;;;;;;8.94;25.62;98449.49;110937;1241;68695;-67
2022/03/28 06:58:57;;;;;;;;;;;;;;;9.26;24.01;98448.55;111120;1241;60475;-66
2022/03/28 07:01:27;;;;;;;;;;;;;;;9.45;23.58;98446.20;110920;1241;60534;-67
2022/03/28 07:03:56;;;;;;;;;;;;;;;9.79;23.37;98443.73;110948;1240;71250;-64
2022/03/28 07:06:25;;;;;;;;;;;;;;;9.97;22.94;98440.14;110760;1241;67853;-63
2022/03/28 07:08:54;;;;;;;;;;;;;;;10.44;23.20;98437.39;110633;1242;69209;-64
2022/03/28 07:11:25;;;;;;;;;;;;;;;10.81;22.06;98438.45;111095;1240;60920;-66
2022/03/28 07:13:55;;;;;;;;;;;;;;;11.30;22.58;98433.86;110972;1241;60419;-63
2022/03/28 07:16:24;;;;;;;;;;;;;;;11.84;21.33;98434.27;110823;1241;72314;-62
2022/03/28 07:18:53;;;;;;;;;;;;;;;12.06;20.72;98429.57;110873;1240;69229;-63
2022/03/28 07:21:24;;;;;;;;;;;;;;;12.39;20.25;98425.93;111144;1241;69535;-64
2022/03/28 07:23:53;;;;;;;;;;;;;;;12.56;19.76;98427.24;110856;1241;60935;-65
2022/03/28 07:26:24;;;;;;;;;;;;;;;13.07;20.58;98422.30;111068;1239;60816;-63
2022/03/28 07:28:53;;;;;;;;;;;;;;;13.17;18.45;98422.76;111031;1241;71790;-65
2022/03/28 07:31:22;;;;;;;;;;;;;;;13.16;18.42;98429.64;110792;1241;67635;-64
2022/03/28 07:33:51;;;;;;;;;;;;;;;13.45;18.95;98434.66;110717;1241;68614;-66
2022/03/28 07:36:20;;;;;;;;;;;;;;;13.78;19.15;98435.77;110985;1241;60579;-65
2022/03/28 07:38:50;;;;;;;;;;;;;;;13.70;18.32;98438.00;110910;1241;60476;-66
2022/03/28 07:41:19;;;;;;;;;;;;;;;13.65;18.04;98438.39;110873;1239;71709;-67
2022/03/28 07:43:48;;;;;;;;;;;;;;;13.72;18.65;98440.14;111027;1241;67889;-66
2022/03/28 07:46:18;;;;;;;;;;;;;;;13.44;18.18;98434.04;110782;1241;69446;-67
2022/03/28 07:48:47;;;;;;;;;;;;;;;13.15;18.85;98430.23;110895;1240;60479;-65
2022/03/28 07:51:16;;;;;;;;;;;;;;;13.59;18.82;98431.09;110859;1241;60501;-62
2022/03/28 07:53:44;;;;;;;;;;;;;;;13.97;18.60;98426.68;110781;1242;72320;-64
2022/03/28 07:56:13;;;;;;;;;;;;;;;13.75;18.57;98423.52;110894;1241;68855;-67
2022/03/28 07:58:42;;;;;;;;;;;;;;;14.45;18.29;98425.39;110835;1241;67818;-66
2022/03/28 08:01:14;;;;;;;;;;;;;;;14.53;17.85;98426.73;110837;1241;60587;-64
2022/03/28 08:03:44;;;;;;;;;;;;;;;14.12;17.47;98423.02;110876;1239;60471;-67
2022/03/28 08:06:14;;;;;;;;;;;;;;;14.50;17.06;98421.66;110759;1241;72480;-64
2022/03/28 08:08:43;;;;;;;;;;;;;;;14.53;15.89;98420.56;110479;1241;67799;-68
2022/03/28 08:11:15;;;;;;;;;;;;;;;14.96;16.70;98417.44;110784;1241;68634;-68
2022/03/28 08:13:44;;;;;;;;;;;;;;;15.54;14.85;98416.14;110719;1241;60572;-65
2022/03/28 08:16:14;;;;;;;;;;;;;;;15.58;14.54;98412.31;110746;1241;61415;-64
2022/03/28 08:18:44;;;;;;;;;;;;;;;15.91;14.04;98411.70;110902;1241;72351;-64
2022/03/28 08:21:13;;;;;;;;;;;;;;;16.17;13.81;98408.45;110760;1240;68995;-64
2022/03/28 08:23:42;;;;;;;;;;;;;;;16.35;13.66;98402.90;110809;1241;69877;-64
2022/03/28 08:26:12;;;;;;;;;;;;;;;16.12;13.88;98403.73;110773;1241;60453;-65
2022/03/28 08:28:41;;;;;;;;;;;;;;;16.37;14.39;98396.98;110724;1241;60475;-65
2022/03/28 08:31:11;;;;;;;;;;;;;;;16.62;13.77;98393.04;111093;1239;71952;-66
2022/03/28 08:33:40;;;;;;;;;;;;;;;17.12;13.66;98386.61;110884;1241;68874;-67
2022/03/28 08:36:10;;;;;;;;;;;;;;;16.72;13.59;98380.02;110821;1241;69299;-67
2022/03/28 08:38:39;;;;;;;;;;;;;;;17.12;14.11;98372.99;111113;1239;60479;-69
2022/03/28 08:41:13;;;;;;;;;;;;;;;17.83;12.88;98374.73;111037;1239;60476;-69
2022/03/28 08:43:43;;;;;;;;;;;;;;;17.46;13.09;98370.33;110791;1239;72635;-65
2022/03/28 08:46:15;;;;;;;;;;;;;;;17.73;13.10;98372.93;111145;1240;67938;-64
2022/03/28 08:48:44;;;;;;;;;;;;;;;18.35;12.72;98362.90;111004;1239;69312;-65
2022/03/28 08:51:16;;;;;;;;;;;;;;;18.66;12.12;98364.98;110845;1241;60496;-64
2022/03/28 08:53:46;;;;;;;;;;;;;;;18.95;12.15;98364.81;110848;1241;60959;-64
2022/03/28 08:56:14;;;;;;;;;;;;;;;18.63;12.49;98359.64;110840;1241;72371;-66
2022/03/28 08:59:05;;;;;;;;;;;;;;;19.44;12.38;98362.03;111183;1241;67893;-65
2022/03/28 09:01:34;;;;;;;;;;;;;;;20.03;11.91;98362.52;111102;1240;69420;-64
2022/03/28 09:04:08;;;;;;;;;;;;;;;19.84;11.43;98362.74;111058;1240;60551;-65
2022/03/28 09:06:38;;;;;;;;;;;;;;;19.89;11.27;98358.89;110824;1241;60556;-66
2022/03/28 09:09:10;;;;;;;;;;;;;;;19.18;11.41;98358.79;110497;1241;71533;-63
2022/03/28 09:11:40;;;;;;;;;;;;;;;18.66;11.82;98355.20;110992;1241;68441;-65
2022/03/28 09:14:10;;;;;;;;;;;;;;;18.38;11.81;98354.31;110755;1238;69535;-65
2022/03/28 09:16:39;;;;;;;;;;;;;;;18.50;11.53;98352.01;111019;1241;60504;-62
2022/03/28 09:19:10;;;;;;;;;;;;;;;17.75;12.28;98348.21;110827;1241;60512;-65
2022/03/28 09:21:49;;;;;;;;;;;;;;;18.20;12.64;98348.71;110822;1241;72831;-66
2022/03/28 09:24:18;;;;;;;;;;;;;;;18.58;11.65;98347.77;110982;1240;68100;-66
2022/03/28 09:26:47;;;;;;;;;;;;;;;18.43;11.77;98343.69;110995;1240;69462;-65
2022/03/28 09:29:16;;;;;;;;;;;;;;;18.13;11.80;98343.27;110969;1239;60527;-65
2022/03/28 09:31:45;;;;;;;;;;;;;;;18.14;11.57;98335.60;111067;1241;60488;-66
2022/03/28 09:34:19;;;;;;;;;;;;;;;17.89;10.88;98335.18;110986;1240;72945;-66
2022/03/28 09:36:50;;;;;;;;;;;;;;;18.63;10.63;98327.21;110999;1241;68475;-66
2022/03/28 09:39:24;;;;;;;;;;;;;;;18.84;10.76;98330.36;110993;1240;68993;-66
2022/03/28 09:41:59;;;;;;;;;;;;;;;18.70;10.87;98322.42;110742;1241;60487;-68
2022/03/28 09:44:42;;;;;;;;;;;;;;;18.91;10.30;98320.60;111010;1239;60526;-66
2022/03/28 09:47:13;;;;;;;;;;;;;;;19.49;10.38;98318.14;110786;1240;71604;-68
2022/03/28 09:49:44;;;;;;;;;;;;;;;20.16;10.26;98316.43;110730;1239;68543;-65
2022/03/28 09:52:18;;;;;;;;;;;;;;;20.68;9.42;98310.46;110818;1241;68649;-64
2022/03/28 09:54:51;;;;;;;;;;;;;;;20.89;9.28;98305.49;110894;1241;60589;-65
2022/03/28 09:57:32;;;;;;;;;;;;;;;21.31;9.21;98304.23;111161;1240;60444;-64
2022/03/28 10:00:12;;;;;;;;;;;;;;;21.65;9.05;98300.55;111120;1240;72162;-64
2022/03/28 10:02:41;;;;;;;;;;;;;;;21.48;8.42;98298.05;111002;1241;68625;-64
2022/03/28 10:05:11;;;;;;;;;;;;;;;21.22;8.81;98294.39;110799;1241;69459;-64
2022/03/28 10:07:40;;;;;;;;;;;;;;;21.29;9.07;98293.48;111170;1241;60449;-64
2022/03/28 10:10:09;;;;;;;;;;;;;;;21.07;8.89;98286.72;110909;1241;60463;-64
2022/03/28 10:12:39;;;;;;;;;;;;;;;20.84;8.85;98282.80;111141;1240;71915;-64
2022/03/28 10:15:08;;;;;;;;;;;;;;;20.66;8.78;98281.86;110540;1241;68566;-65
2022/03/28 10:17:38;;;;;;;;;;;;;;;21.28;8.65;98279.55;111043;1239;69715;-66
2022/03/28 10:20:08;;;;;;;;;;;;;;;21.95;9.24;98271.45;111056;1241;60518;-65
2022/03/28 10:22:58;;;;;;;;;;;;;;;22.58;8.78;98269.75;110807;1241;60582;-65
2022/03/28 10:25:28;;;;;;;;;;;;;;;23.65;8.25;98270.60;110749;1241;72351;-67
2022/03/28 10:27:57;;;;;;;;;;;;;;;24.00;7.90;98264.39;110932;1241;68578;-67
2022/03/28 10:30:30;;;;;;;;;;;;;;;24.12;7.45;98259.78;110816;1241;68668;-64
2022/03/28 10:33:21;;;;;;;;;;;;;;;24.73;7.86;98255.40;110845;1241;60572;-65
2022/03/28 10:35:57;;;;;;;;;;;;;;;23.94;8.43;98245.96;110866;1241;60475;-65
2022/03/28 10:38:26;;;;;;;;;;;;;;;24.16;8.22;98243.82;110814;1241;71668;-66
2022/03/28 10:41:03;;;;;;;;;;;;;;;24.23;8.28;98238.86;110882;1241;68587;-64
2022/03/28 10:43:33;;;;;;;;;;;;;;;23.89;8.55;98238.70;110794;1241;69795;-66
2022/03/28 10:46:03;;;;;;;;;;;;;;;23.90;8.65;98232.05;110766;1241;60481;-68
2022/03/28 10:48:54;;;;;;;;;;;;;;;24.85;8.11;98228.69;110776;1241;60511;-67
2022/03/28 10:51:29;;;;;;;;;;;;;;;23.82;8.35;98225.05;110494;1240;71584;-67
2022/03/28 10:54:07;;;;;;;;;;;;;;;22.86;9.45;98221.01;110944;1241;68554;-65
2022/03/28 10:56:46;;;;;;;;;;;;;;;23.10;11.06;98212.66;110665;1241;70146;-66
2022/03/28 10:59:19;;;;;;;;;;;;;;;22.96;11.05;98210.45;110876;1241;60574;-65
2022/03/28 11:01:51;;;;;;;;;;;;;;;23.47;10.79;98197.78;110902;1241;60443;-65
2022/03/28 11:04:24;;;;;;;;;;;;;;;23.60;11.65;98190.11;110770;1241;71616;-67
2022/03/28 11:07:11;;;;;;;;;;;;;;;23.57;10.73;98190.84;110688;1241;67823;-65
2022/03/28 11:10:00;;;;;;;;;;;;;;;24.01;11.00;98186.11;110716;1241;69429;-66
2022/03/28 11:12:35;;;;;;;;;;;;;;;24.15;10.56;98178.52;110872;1241;60524;-63
2022/03/28 11:15:05;;;;;;;;;;;;;;;24.26;10.80;98176.56;110852;1241;60482;-63
2022/03/28 11:17:38;;;;;;;;;;;;;;;23.82;9.68;98171.73;110766;1241;72732;-65
2022/03/28 11:20:07;;;;;;;;;;;;;;;23.80;9.81;98164.64;110812;1241;69379;-64
2022/03/28 11:22:41;;;;;;;;;;;;;;;24.22;9.96;98158.87;110704;1241;68659;-65
2022/03/28 11:25:29;;;;;;;;;;;;;;;24.33;9.52;98154.98;110893;1241;60474;-64
2022/03/28 11:28:03;;;;;;;;;;;;;;;24.25;9.37;98150.21;110881;1239;60529;-65
2022/03/28 11:30:35;;;;;;;;;;;;;;;24.74;9.73;98150.81;110790;1241;71152;-64
2022/03/28 11:33:11;;;;;;;;;;;;;;;25.19;8.90;98141.73;110798;1241;68621;-64
2022/03/28 11:35:49;;;;;;;;;;;;;;;24.87;9.10;98136.91;110765;1241;68723;-65
2022/03/28 11:38:20;;;;;;;;;;;;;;;25.07;9.44;98128.94;110701;1242;60476;-67
2022/03/28 11:40:49;;;;;;;;;;;;;;;25.62;9.39;98121.59;110928;1241;60540;-66
2022/03/28 11:43:25;;;;;;;;;;;;;;;25.06;9.17;98120.14;110796;1240;72371;-67
2022/03/28 11:45:55;;;;;;;;;;;;;;;24.47;9.55;98119.46;110647;1241;68519;-66
2022/03/28 11:48:24;;;;;;;;;;;;;;;23.76;9.81;98109.45;110847;1240;68625;-66
2022/03/28 11:50:55;;;;;;;;;;;;;;;23.43;10.03;98100.23;110808;1241;60889;-66
2022/03/28 11:53:23;;;;;;;;;;;;;;;23.99;9.91;98093.41;110767;1242;60518;-67
2022/03/28 11:55:54;;;;;;;;;;;;;;;24.17;9.69;98091.77;110780;1241;72348;-64
2022/03/28 11:58:30;;;;;;;;;;;;;;;24.67;9.68;98084.08;110796;1239;67894;-65
2022/03/28 12:01:05;;;;;;;;;;;;;;;24.46;9.56;98082.55;110727;1241;69472;-65
2022/03/28 12:03:37;;;;;;;;;;;;;;;24.62;9.59;98073.17;110661;1241;60418;-64
2022/03/28 12:06:06;;;;;;;;;;;;;;;24.63;9.40;98073.86;110699;1241;60951;-66
2022/03/28 12:08:42;;;;;;;;;;;;;;;23.76;9.74;98068.01;110719;1241;72393;-64
2022/03/28 12:11:13;;;;;;;;;;;;;;;23.24;10.33;98058.87;110798;1241;68780;-64
2022/03/28 12:13:42;;;;;;;;;;;;;;;23.01;10.82;98056.36;110733;1240;69056;-62
2022/03/28 12:16:11;;;;;;;;;;;;;;;22.22;11.69;98055.55;110880;1240;60514;-65
2022/03/28 12:18:41;;;;;;;;;;;;;;;21.17;11.99;98049.17;110796;1241;60488;-64
2022/03/28 12:21:12;;;;;;;;;;;;;;;21.55;11.95;98047.08;110927;1241;71748;-65
2022/03/28 12:23:41;;;;;;;;;;;;;;;21.77;12.07;98040.81;111102;1240;68452;-66
2022/03/28 12:26:11;;;;;;;;;;;;;;;21.89;12.01;98036.36;110761;1241;69682;-65
2022/03/28 12:28:43;;;;;;;;;;;;;;;21.61;12.23;98040.77;110523;1241;60959;-65
2022/03/28 12:31:12;;;;;;;;;;;;;;;21.47;12.32;98034.70;110892;1241;60489;-66
2022/03/28 12:33:43;;;;;;;;;;;;;;;21.28;12.62;98028.55;111177;1240;72440;-66
2022/03/28 12:36:22;;;;;;;;;;;;;;;21.96;12.15;98018.55;111081;1240;68031;-65
2022/03/28 12:38:56;;;;;;;;;;;;;;;22.97;11.78;98011.28;111017;1241;69447;-66
2022/03/28 12:41:28;;;;;;;;;;;;;;;23.69;11.28;98005.85;111116;1240;60540;-66
2022/03/28 12:43:58;;;;;;;;;;;;;;;23.66;11.08;97994.02;111057;1240;60475;-65
2022/03/28 12:46:28;;;;;;;;;;;;;;;23.49;11.64;97993.51;111105;1239;72401;-65
2022/03/28 12:48:57;;;;;;;;;;;;;;;24.19;11.48;97986.13;111110;1239;68562;-66
2022/03/28 12:51:33;;;;;;;;;;;;;;;24.95;10.60;97979.48;111110;1240;69475;-65
2022/03/28 12:54:07;;;;;;;;;;;;;;;25.07;10.24;97974.08;111095;1239;60436;-66
2022/03/28 12:56:45;;;;;;;;;;;;;;;24.93;10.37;97970.33;110773;1240;60527;-66
2022/03/28 12:59:20;;;;;;;;;;;;;;;24.89;10.35;97964.58;110920;1241;71752;-68